createdAt,value
2023-10-09T00:00:09.034Z,93
2023-10-09T00:00:35.781Z,93
2023-10-09T00:00:56.271Z,93
2023-10-09T00:01:27.447Z,93
2023-10-09T00:01:59.511Z,93
2023-10-09T00:02:31.493Z,93
2023-10-09T00:03:03.956Z,93
2023-10-09T00:03:36.370Z,93
2023-10-09T00:04:08.029Z,93
2023-10-09T00:04:34.777Z,93
2023-10-09T00:04:55.419Z,93
2023-10-09T00:05:27.840Z,93
2023-10-09T00:05:59.533Z,93
2023-10-09T00:06:31.799Z,93
2023-10-09T00:07:03.911Z,93
2023-10-09T00:07:35.494Z,93
2023-10-09T00:08:08.181Z,93
2023-10-09T00:08:34.736Z,93
2023-10-09T00:08:55.462Z,93
2023-10-09T00:09:27.466Z,93
2023-10-09T00:10:00.693Z,93
2023-10-09T00:10:31.620Z,94
2023-10-09T00:11:03.918Z,93
2023-10-09T00:11:36.090Z,94
2023-10-09T00:12:07.673Z,94
2023-10-09T00:12:34.839Z,94
2023-10-09T00:12:55.696Z,94
2023-10-09T00:13:27.434Z,94
2023-10-09T00:13:59.442Z,94
2023-10-09T00:14:31.482Z,94
2023-10-09T00:15:04.495Z,94
2023-10-09T00:15:35.550Z,93
2023-10-09T00:16:07.705Z,93
2023-10-09T00:16:34.876Z,93
2023-10-09T00:16:55.511Z,93
2023-10-09T00:17:27.429Z,93
2023-10-09T00:17:59.644Z,93
2023-10-09T00:18:51.755Z,93
2023-10-09T00:19:03.963Z,93
2023-10-09T00:19:36.532Z,93
2023-10-09T00:20:07.699Z,93
2023-10-09T00:20:34.846Z,93
2023-10-09T00:20:55.857Z,93
2023-10-09T00:21:27.492Z,93
2023-10-09T00:21:59.426Z,93
2023-10-09T00:22:31.484Z,93
2023-10-09T00:23:03.954Z,93
2023-10-09T00:23:35.883Z,93
2023-10-09T00:24:07.670Z,93
2023-10-09T00:24:34.789Z,93
2023-10-09T00:24:55.592Z,93
2023-10-09T00:25:27.708Z,93
2023-10-09T00:26:00.197Z,92
2023-10-09T00:26:31.472Z,92
2023-10-09T00:27:03.997Z,92
2023-10-09T00:27:35.624Z,92
2023-10-09T00:28:07.429Z,92
2023-10-09T00:28:34.700Z,92
2023-10-09T00:29:12.850Z,92
2023-10-09T00:29:34.727Z,92
2023-10-09T00:29:59.442Z,92
2023-10-09T00:30:33.002Z,92
2023-10-09T00:31:04.069Z,92
2023-10-09T00:31:35.548Z,92
2023-10-09T00:32:07.492Z,91
2023-10-09T00:32:34.742Z,91
2023-10-09T00:32:55.609Z,91
2023-10-09T00:33:27.505Z,91
2023-10-09T00:33:59.724Z,91
2023-10-09T00:34:31.422Z,91
2023-10-09T00:35:04.239Z,91
2023-10-09T00:35:36.320Z,91
2023-10-09T00:36:23.917Z,91
2023-10-09T00:36:41.999Z,91
2023-10-09T00:37:11.440Z,91
2023-10-09T00:37:35.575Z,91
2023-10-09T00:37:59.433Z,91
2023-10-09T00:38:31.476Z,91
2023-10-09T00:39:03.961Z,91
2023-10-09T00:39:35.435Z,91
2023-10-09T00:40:07.734Z,91
2023-10-09T00:40:35.416Z,91
2023-10-09T00:40:56.796Z,91
2023-10-09T00:41:28.088Z,91
2023-10-09T00:42:00.754Z,91
2023-10-09T00:42:31.701Z,91
2023-10-09T00:43:03.878Z,91
2023-10-09T00:43:35.648Z,91
2023-10-09T00:44:07.427Z,91
2023-10-09T00:44:35.649Z,91
2023-10-09T00:44:55.495Z,91
2023-10-09T00:45:29.366Z,91
2023-10-09T00:46:00.272Z,91
2023-10-09T00:46:31.832Z,91
2023-10-09T00:47:04.378Z,91
2023-10-09T00:47:35.725Z,91
2023-10-09T00:48:08.054Z,91
2023-10-09T00:48:35.172Z,91
2023-10-09T00:48:55.886Z,91
2023-10-09T00:49:27.667Z,91
2023-10-09T00:49:59.631Z,91
2023-10-09T00:50:32.112Z,91
2023-10-09T00:51:04.504Z,91
2023-10-09T00:51:37.016Z,91
2023-10-09T00:52:07.595Z,91
2023-10-09T00:52:35.167Z,91
2023-10-09T00:52:55.622Z,91
2023-10-09T00:53:27.575Z,91
2023-10-09T00:53:59.634Z,91
2023-10-09T00:54:31.851Z,91
2023-10-09T00:55:04.233Z,91
2023-10-09T00:55:35.554Z,91
2023-10-09T00:56:07.864Z,91
2023-10-09T00:56:34.762Z,91
2023-10-09T00:56:55.531Z,91
2023-10-09T00:57:27.573Z,91
2023-10-09T00:58:00.356Z,91
2023-10-09T00:58:31.539Z,91
2023-10-09T00:59:19.517Z,91
2023-10-09T00:59:41.393Z,91
2023-10-09T01:00:15.534Z,91
2023-10-09T01:00:34.959Z,91
2023-10-09T01:01:12.399Z,91
2023-10-09T01:01:34.841Z,91
2023-10-09T01:01:59.558Z,91
2023-10-09T01:03:04.116Z,91
2023-10-09T01:03:36.008Z,91
2023-10-09T01:04:07.582Z,91
2023-10-09T01:04:35.013Z,91
2023-10-09T01:04:55.472Z,91
2023-10-09T01:05:27.782Z,91
2023-10-09T01:05:59.788Z,91
2023-10-09T01:06:37.592Z,91
2023-10-09T01:07:04.122Z,91
2023-10-09T01:07:36.580Z,91
2023-10-09T01:08:07.494Z,91
2023-10-09T01:08:34.805Z,91
2023-10-09T01:08:55.451Z,91
2023-10-09T01:09:27.501Z,91
2023-10-09T01:09:59.485Z,91
2023-10-09T01:10:31.757Z,91
2023-10-09T01:11:03.875Z,91
2023-10-09T01:11:35.457Z,91
2023-10-09T01:12:07.763Z,91
2023-10-09T01:12:34.774Z,91
2023-10-09T01:13:11.467Z,91
2023-10-09T01:13:34.717Z,91
2023-10-09T01:14:00.440Z,91
2023-10-09T01:14:31.435Z,92
2023-10-09T01:15:04.617Z,92
2023-10-09T01:15:35.746Z,92
2023-10-09T01:16:07.631Z,92
2023-10-09T01:16:34.729Z,92
2023-10-09T01:16:55.439Z,92
2023-10-09T01:17:27.419Z,92
2023-10-09T01:17:59.505Z,92
2023-10-09T01:18:31.698Z,92
2023-10-09T01:19:03.929Z,92
2023-10-09T01:19:35.407Z,92
2023-10-09T01:20:07.945Z,92
2023-10-09T01:20:35.936Z,92
2023-10-09T01:20:55.720Z,92
2023-10-09T01:21:27.500Z,92
2023-10-09T01:21:59.407Z,92
2023-10-09T01:22:31.409Z,92
2023-10-09T01:23:03.865Z,92
2023-10-09T01:23:36.216Z,92
2023-10-09T01:24:07.767Z,92
2023-10-09T01:24:35.762Z,92
2023-10-09T01:24:55.572Z,92
2023-10-09T01:25:27.723Z,92
2023-10-09T01:25:59.713Z,92
2023-10-09T01:26:31.441Z,92
2023-10-09T01:27:04.472Z,92
2023-10-09T01:27:35.551Z,92
2023-10-09T01:28:07.371Z,92
2023-10-09T01:28:35.424Z,92
2023-10-09T01:28:55.413Z,92
2023-10-09T01:29:27.396Z,91
2023-10-09T01:29:59.462Z,91
2023-10-09T01:30:43.649Z,91
2023-10-09T01:31:03.939Z,91
2023-10-09T01:31:35.461Z,91
2023-10-09T01:32:07.380Z,91
2023-10-09T01:32:34.777Z,91
2023-10-09T01:33:11.506Z,91
2023-10-09T01:33:36.042Z,91
2023-10-09T01:33:59.478Z,90
2023-10-09T01:34:31.456Z,90
2023-10-09T01:35:04.236Z,89
2023-10-09T01:35:35.437Z,89
2023-10-09T01:36:13.250Z,89
2023-10-09T01:36:35.011Z,89
2023-10-09T01:36:55.551Z,89
2023-10-09T01:37:27.393Z,88
2023-10-09T01:37:59.416Z,88
2023-10-09T01:38:31.412Z,88
2023-10-09T01:39:03.943Z,88
2023-10-09T01:39:35.451Z,87
2023-10-09T01:40:08.536Z,87
2023-10-09T01:40:35.218Z,87
2023-10-09T01:40:57.112Z,86
2023-10-09T01:41:27.410Z,86
2023-10-09T01:41:59.588Z,85
2023-10-09T01:42:31.819Z,85
2023-10-09T01:43:03.895Z,85
2023-10-09T01:43:35.534Z,85
2023-10-09T01:44:07.400Z,85
2023-10-09T01:44:35.403Z,84
2023-10-09T01:44:55.416Z,84
2023-10-09T01:45:28.165Z,84
2023-10-09T01:45:59.564Z,84
2023-10-09T01:46:32.195Z,83
2023-10-09T01:47:03.912Z,82
2023-10-09T01:47:35.427Z,82
2023-10-09T01:48:08.559Z,82
2023-10-09T01:48:34.859Z,82
2023-10-09T01:48:55.536Z,82
2023-10-09T01:49:27.353Z,81
2023-10-09T01:49:59.423Z,81
2023-10-09T01:50:31.737Z,81
2023-10-09T01:51:03.940Z,81
2023-10-09T01:51:35.410Z,81
2023-10-09T01:52:07.414Z,81
2023-10-09T01:52:34.716Z,81
2023-10-09T01:52:56.793Z,81
2023-10-09T01:53:27.552Z,81
2023-10-09T01:53:59.442Z,81
2023-10-09T01:54:31.750Z,81
2023-10-09T01:55:04.174Z,81
2023-10-09T01:55:35.404Z,81
2023-10-09T01:56:08.301Z,81
2023-10-09T01:56:35.308Z,81
2023-10-09T01:56:55.500Z,81
2023-10-09T01:57:27.478Z,81
2023-10-09T01:57:59.824Z,81
2023-10-09T01:58:31.446Z,81
2023-10-09T01:59:03.875Z,81
2023-10-09T01:59:35.407Z,81
2023-10-09T02:00:10.600Z,81
2023-10-09T02:00:34.754Z,81
2023-10-09T02:00:55.979Z,82
2023-10-09T02:01:27.489Z,82
2023-10-09T02:01:59.430Z,82
2023-10-09T02:02:32.383Z,82
2023-10-09T02:03:04.209Z,82
2023-10-09T02:03:35.530Z,82
2023-10-09T02:04:07.451Z,82
2023-10-09T02:04:34.903Z,82
2023-10-09T02:04:55.399Z,82
2023-10-09T02:05:27.724Z,82
2023-10-09T02:05:59.523Z,82
2023-10-09T02:06:31.690Z,82
2023-10-09T02:07:03.912Z,82
2023-10-09T02:07:35.731Z,82
2023-10-09T02:08:07.448Z,82
2023-10-09T02:08:34.700Z,81
2023-10-09T02:08:56.200Z,81
2023-10-09T02:09:27.425Z,81
2023-10-09T02:09:59.411Z,81
2023-10-09T02:10:31.711Z,81
2023-10-09T02:11:03.935Z,81
2023-10-09T02:11:35.359Z,81
2023-10-09T02:12:08.460Z,81
2023-10-09T02:12:34.899Z,81
2023-10-09T02:12:55.516Z,81
2023-10-09T02:13:27.501Z,81
2023-10-09T02:13:59.526Z,81
2023-10-09T02:14:31.418Z,81
2023-10-09T02:15:04.409Z,81
2023-10-09T02:15:35.560Z,81
2023-10-09T02:16:07.656Z,81
2023-10-09T02:16:34.742Z,81
2023-10-09T02:16:55.385Z,81
2023-10-09T02:17:27.396Z,81
2023-10-09T02:17:59.769Z,81
2023-10-09T02:18:32.815Z,81
2023-10-09T02:19:03.919Z,81
2023-10-09T02:19:35.401Z,81
2023-10-09T02:20:07.857Z,81
2023-10-09T02:20:35.512Z,81
2023-10-09T02:20:55.668Z,81
2023-10-09T02:21:27.364Z,81
2023-10-09T02:21:59.410Z,81
2023-10-09T02:22:31.408Z,81
2023-10-09T02:23:03.828Z,81
2023-10-09T02:23:35.800Z,81
2023-10-09T02:24:07.721Z,81
2023-10-09T02:24:34.713Z,81
2023-10-09T02:24:56.216Z,80
2023-10-09T02:25:27.629Z,80
2023-10-09T02:25:59.412Z,80
2023-10-09T02:26:31.380Z,80
2023-10-09T02:27:03.890Z,80
2023-10-09T02:27:35.421Z,80
2023-10-09T02:28:08.166Z,80
2023-10-09T02:28:34.884Z,80
2023-10-09T02:28:55.398Z,80
2023-10-09T02:29:27.370Z,80
2023-10-09T02:29:59.485Z,80
2023-10-09T02:30:32.227Z,80
2023-10-09T02:31:03.983Z,80
2023-10-09T02:31:35.401Z,81
2023-10-09T02:32:07.346Z,81
2023-10-09T02:32:34.682Z,81
2023-10-09T02:32:55.418Z,81
2023-10-09T02:33:27.374Z,81
2023-10-09T02:33:59.355Z,82
2023-10-09T02:34:32.171Z,83
2023-10-09T02:35:04.319Z,84
2023-10-09T02:35:35.356Z,84
2023-10-09T02:36:07.632Z,84
2023-10-09T02:36:34.720Z,84
2023-10-09T02:36:55.592Z,84
2023-10-09T02:37:27.381Z,85
2023-10-09T02:37:59.400Z,85
2023-10-09T02:38:31.366Z,85
2023-10-09T02:39:03.924Z,85
2023-10-09T02:39:35.431Z,85
2023-10-09T02:40:07.767Z,85
2023-10-09T02:40:35.744Z,85
2023-10-09T02:40:56.387Z,85
2023-10-09T02:41:27.352Z,85
2023-10-09T02:41:59.416Z,85
2023-10-09T02:42:31.767Z,85
2023-10-09T02:43:03.841Z,85
2023-10-09T02:43:41.226Z,85
2023-10-09T02:44:08.225Z,85
2023-10-09T02:44:34.726Z,85
2023-10-09T02:44:55.448Z,85
2023-10-09T02:45:27.929Z,84
2023-10-09T02:45:59.423Z,84
2023-10-09T02:46:31.464Z,84
2023-10-09T02:47:03.837Z,84
2023-10-09T02:47:35.611Z,84
2023-10-09T02:48:07.761Z,84
2023-10-09T02:48:34.759Z,84
2023-10-09T02:48:56.174Z,84
2023-10-09T02:49:27.350Z,84
2023-10-09T02:49:59.358Z,84
2023-10-09T02:50:32.706Z,84
2023-10-09T02:51:03.875Z,84
2023-10-09T02:51:35.356Z,84
2023-10-09T02:52:07.337Z,84
2023-10-09T02:52:34.682Z,84
2023-10-09T02:52:55.359Z,84
2023-10-09T02:53:27.347Z,84
2023-10-09T02:53:59.431Z,84
2023-10-09T02:54:31.823Z,84
2023-10-09T02:55:04.107Z,84
2023-10-09T02:55:35.923Z,84
2023-10-09T02:56:07.438Z,84
2023-10-09T02:56:34.683Z,84
2023-10-09T02:56:56.077Z,84
2023-10-09T02:57:27.378Z,85
2023-10-09T02:57:59.387Z,85
2023-10-09T02:58:31.419Z,85
2023-10-09T02:59:03.795Z,85
2023-10-09T02:59:35.771Z,85
2023-10-09T03:00:09.150Z,85
2023-10-09T03:00:34.756Z,85
2023-10-09T03:00:55.868Z,85
2023-10-09T03:01:27.436Z,85
2023-10-09T03:01:59.339Z,85
2023-10-09T03:02:31.376Z,85
2023-10-09T03:03:20.313Z,85
2023-10-09T03:03:41.369Z,85
2023-10-09T03:04:07.481Z,85
2023-10-09T03:04:35.195Z,85
2023-10-09T03:04:55.341Z,85
2023-10-09T03:05:27.666Z,85
2023-10-09T03:05:59.402Z,85
2023-10-09T03:06:32.828Z,85
2023-10-09T03:07:04.004Z,85
2023-10-09T03:07:35.353Z,85
2023-10-09T03:08:07.331Z,85
2023-10-09T03:08:34.693Z,85
2023-10-09T03:08:55.404Z,85
2023-10-09T03:09:27.487Z,85
2023-10-09T03:09:59.730Z,85
2023-10-09T03:10:31.646Z,85
2023-10-09T03:11:03.951Z,85
2023-10-09T03:11:35.373Z,85
2023-10-09T03:12:07.928Z,85
2023-10-09T03:12:35.195Z,85
2023-10-09T03:12:57.279Z,85
2023-10-09T03:13:27.349Z,85
2023-10-09T03:13:59.382Z,85
2023-10-09T03:14:31.349Z,85
2023-10-09T03:15:04.355Z,85
2023-10-09T03:15:35.360Z,85
2023-10-09T03:16:08.348Z,85
2023-10-09T03:16:34.692Z,85
2023-10-09T03:16:55.397Z,85
2023-10-09T03:17:27.465Z,85
2023-10-09T03:17:59.428Z,85
2023-10-09T03:18:31.644Z,85
2023-10-09T03:19:03.789Z,85
2023-10-09T03:19:35.357Z,85
2023-10-09T03:20:07.703Z,85
2023-10-09T03:20:34.681Z,85
2023-10-09T03:20:55.597Z,85
2023-10-09T03:21:34.708Z,85
2023-10-09T03:21:59.340Z,85
2023-10-09T03:22:32.191Z,85
2023-10-09T03:23:03.844Z,86
2023-10-09T03:23:35.297Z,86
2023-10-09T03:24:07.911Z,86
2023-10-09T03:24:35.218Z,86
2023-10-09T03:24:55.523Z,86
2023-10-09T03:25:27.674Z,86
2023-10-09T03:26:14.808Z,86
2023-10-09T03:26:31.373Z,86
2023-10-09T03:27:03.951Z,86
2023-10-09T03:27:35.534Z,86
2023-10-09T03:28:07.359Z,86
2023-10-09T03:28:34.766Z,86
2023-10-09T03:28:56.017Z,86
2023-10-09T03:29:27.366Z,87
2023-10-09T03:29:59.401Z,87
2023-10-09T03:30:36.816Z,87
2023-10-09T03:31:04.046Z,87
2023-10-09T03:31:35.315Z,87
2023-10-09T03:32:08.130Z,87
2023-10-09T03:32:34.717Z,87
2023-10-09T03:32:55.800Z,87
2023-10-09T03:33:27.430Z,87
2023-10-09T03:33:59.425Z,87
2023-10-09T03:34:31.369Z,87
2023-10-09T03:35:04.249Z,87
2023-10-09T03:35:35.350Z,87
2023-10-09T03:36:07.628Z,87
2023-10-09T03:36:34.767Z,87
2023-10-09T03:36:55.543Z,87
2023-10-09T03:37:27.359Z,88
2023-10-09T03:37:59.353Z,88
2023-10-09T03:38:32.070Z,88
2023-10-09T03:39:03.797Z,88
2023-10-09T03:39:35.372Z,88
2023-10-09T03:40:07.803Z,88
2023-10-09T03:40:34.788Z,88
2023-10-09T03:40:55.609Z,88
2023-10-09T03:41:27.408Z,88
2023-10-09T03:41:59.398Z,88
2023-10-09T03:42:31.843Z,89
2023-10-09T03:43:03.783Z,89
2023-10-09T03:43:35.793Z,88
2023-10-09T03:44:07.398Z,89
2023-10-09T03:44:35.197Z,89
2023-10-09T03:44:56.251Z,89
2023-10-09T03:45:28.059Z,89
2023-10-09T03:45:59.359Z,89
2023-10-09T03:46:31.397Z,89
2023-10-09T03:47:03.870Z,89
2023-10-09T03:47:35.848Z,88
2023-10-09T03:48:08.593Z,88
2023-10-09T03:48:35.511Z,88
2023-10-09T03:48:55.558Z,88
2023-10-09T03:49:27.367Z,88
2023-10-09T03:49:59.635Z,88
2023-10-09T03:50:31.637Z,88
2023-10-09T03:51:03.888Z,88
2023-10-09T03:51:35.871Z,88
2023-10-09T03:52:07.466Z,88
2023-10-09T03:52:35.802Z,88
2023-10-09T03:52:56.569Z,88
2023-10-09T03:53:27.361Z,88
2023-10-09T03:53:59.428Z,88
2023-10-09T03:54:32.404Z,88
2023-10-09T03:55:04.198Z,88
2023-10-09T03:55:35.302Z,87
2023-10-09T03:56:07.340Z,87
2023-10-09T03:56:34.678Z,87
2023-10-09T03:56:55.363Z,87
2023-10-09T03:57:27.368Z,87
2023-10-09T03:57:59.604Z,87
2023-10-09T03:58:31.358Z,87
2023-10-09T03:59:03.754Z,87
2023-10-09T03:59:35.375Z,87
2023-10-09T04:00:10.724Z,87
2023-10-09T04:00:35.718Z,87
2023-10-09T04:00:56.575Z,87
2023-10-09T04:01:27.433Z,87
2023-10-09T04:01:59.724Z,87
2023-10-09T04:02:30.991Z,87
2023-10-09T04:03:03.198Z,87
2023-10-09T04:03:35.016Z,87
2023-10-09T04:04:07.736Z,87
2023-10-09T04:04:34.380Z,87
2023-10-09T04:04:55.417Z,87
2023-10-09T04:05:27.354Z,87
2023-10-09T04:05:58.851Z,87
2023-10-09T04:06:33.920Z,87
2023-10-09T04:07:03.843Z,86
2023-10-09T04:07:35.607Z,86
2023-10-09T04:08:07.319Z,86
2023-10-09T04:08:34.732Z,86
2023-10-09T04:08:55.339Z,86
2023-10-09T04:09:27.374Z,85
2023-10-09T04:09:59.322Z,85
2023-10-09T04:10:32.458Z,85
2023-10-09T04:11:03.509Z,84
2023-10-09T04:11:36.978Z,84
2023-10-09T04:12:07.736Z,83
2023-10-09T04:12:34.782Z,83
2023-10-09T04:12:55.522Z,82
2023-10-09T04:13:27.334Z,82
2023-10-09T04:13:59.533Z,82
2023-10-09T04:14:31.331Z,81
2023-10-09T04:15:04.050Z,81
2023-10-09T04:15:35.395Z,81
2023-10-09T04:16:07.561Z,81
2023-10-09T04:16:35.180Z,81
2023-10-09T04:16:56.321Z,81
2023-10-09T04:17:27.428Z,81
2023-10-09T04:17:59.422Z,80
2023-10-09T04:18:31.709Z,80
2023-10-09T04:19:03.470Z,79
2023-10-09T04:19:35.320Z,79
2023-10-09T04:20:08.392Z,79
2023-10-09T04:20:34.695Z,79
2023-10-09T04:20:55.654Z,78
2023-10-09T04:21:27.379Z,78
2023-10-09T04:21:59.335Z,78
2023-10-09T04:22:31.350Z,78
2023-10-09T04:23:03.517Z,77
2023-10-09T04:23:35.330Z,77
2023-10-09T04:24:07.680Z,77
2023-10-09T04:24:34.743Z,77
2023-10-09T04:24:55.575Z,77
2023-10-09T04:25:27.921Z,76
2023-10-09T04:25:59.312Z,76
2023-10-09T04:26:32.107Z,77
2023-10-09T04:27:03.414Z,76
2023-10-09T04:27:35.654Z,76
2023-10-09T04:28:07.316Z,77
2023-10-09T04:28:34.721Z,77
2023-10-09T04:28:55.373Z,77
2023-10-09T04:29:27.356Z,77
2023-10-09T04:29:59.380Z,78
2023-10-09T04:30:32.253Z,78
2023-10-09T04:31:03.428Z,77
2023-10-09T04:31:35.332Z,77
2023-10-09T04:32:07.339Z,77
2023-10-09T04:32:34.859Z,77
2023-10-09T04:32:56.091Z,77
2023-10-09T04:33:27.411Z,77
2023-10-09T04:33:59.311Z,77
2023-10-09T04:34:31.330Z,77
2023-10-09T04:35:03.791Z,77
2023-10-09T04:35:35.504Z,77
2023-10-09T04:36:13.832Z,76
2023-10-09T04:36:34.704Z,76
2023-10-09T04:36:55.522Z,76
2023-10-09T04:37:27.371Z,76
2023-10-09T04:37:59.329Z,76
2023-10-09T04:38:31.348Z,76
2023-10-09T04:39:03.388Z,76
2023-10-09T04:39:35.357Z,76
2023-10-09T04:40:07.967Z,76
2023-10-09T04:40:34.684Z,76
2023-10-09T04:40:55.553Z,77
2023-10-09T04:41:27.354Z,77
2023-10-09T04:41:59.356Z,77
2023-10-09T04:42:32.359Z,77
2023-10-09T04:43:03.414Z,77
2023-10-09T04:43:35.684Z,76
2023-10-09T04:44:07.436Z,76
2023-10-09T04:44:34.692Z,76
2023-10-09T04:44:55.317Z,76
2023-10-09T04:45:27.924Z,76
2023-10-09T04:45:59.349Z,76
2023-10-09T04:46:31.750Z,76
2023-10-09T04:47:03.377Z,76
2023-10-09T04:47:35.360Z,77
2023-10-09T04:48:07.754Z,77
2023-10-09T04:48:34.708Z,77
2023-10-09T04:48:56.186Z,78
2023-10-09T04:49:27.369Z,78
2023-10-09T04:49:59.350Z,78
2023-10-09T04:50:31.704Z,78
2023-10-09T04:51:03.387Z,78
2023-10-09T04:51:35.793Z,78
2023-10-09T04:52:27.064Z,78
2023-10-09T04:52:55.400Z,78
2023-10-09T04:53:27.357Z,78
2023-10-09T04:53:59.766Z,78
2023-10-09T04:54:31.709Z,78
2023-10-09T04:55:03.792Z,78
2023-10-09T04:55:36.379Z,78
2023-10-09T04:56:09.951Z,79
2023-10-09T04:56:34.695Z,79
2023-10-09T04:56:55.296Z,79
2023-10-09T04:57:27.350Z,79
2023-10-09T04:58:01.881Z,79
2023-10-09T04:58:31.330Z,79
2023-10-09T04:59:03.359Z,79
2023-10-09T04:59:35.308Z,78
2023-10-09T05:00:08.572Z,78
2023-10-09T05:00:34.765Z,78
2023-10-09T05:00:55.806Z,78
2023-10-09T05:01:27.365Z,78
2023-10-09T05:01:59.377Z,78
2023-10-09T05:02:32.404Z,78
2023-10-09T05:03:03.456Z,78
2023-10-09T05:03:35.759Z,78
2023-10-09T05:04:08.133Z,78
2023-10-09T05:04:34.747Z,78
2023-10-09T05:04:55.299Z,78
2023-10-09T05:05:27.781Z,79
2023-10-09T05:05:59.395Z,79
2023-10-09T05:06:36.680Z,79
2023-10-09T05:07:03.385Z,79
2023-10-09T05:07:35.578Z,80
2023-10-09T05:08:07.322Z,80
2023-10-09T05:08:35.333Z,80
2023-10-09T05:08:56.162Z,81
2023-10-09T05:09:27.360Z,81
2023-10-09T05:09:59.377Z,81
2023-10-09T05:10:31.764Z,81
2023-10-09T05:11:03.548Z,81
2023-10-09T05:11:35.387Z,80
2023-10-09T05:12:16.255Z,80
2023-10-09T05:12:34.738Z,81
2023-10-09T05:12:55.666Z,81
2023-10-09T05:13:27.330Z,81
2023-10-09T05:13:59.435Z,81
2023-10-09T05:14:31.437Z,81
2023-10-09T05:15:03.954Z,81
2023-10-09T05:15:35.414Z,80
2023-10-09T05:16:07.546Z,80
2023-10-09T05:16:34.739Z,80
2023-10-09T05:16:55.539Z,80
2023-10-09T05:17:27.423Z,80
2023-10-09T05:17:59.357Z,80
2023-10-09T05:18:32.737Z,80
2023-10-09T05:19:03.341Z,80
2023-10-09T05:19:35.305Z,80
2023-10-09T05:20:08.791Z,79
2023-10-09T05:20:35.563Z,79
2023-10-09T05:20:55.562Z,78
2023-10-09T05:21:27.384Z,78
2023-10-09T05:21:59.272Z,78
2023-10-09T05:22:31.648Z,78
2023-10-09T05:23:03.488Z,78
2023-10-09T05:23:35.486Z,78
2023-10-09T05:24:07.653Z,78
2023-10-09T05:24:34.799Z,78
2023-10-09T05:24:56.270Z,77
2023-10-09T05:25:27.638Z,78
2023-10-09T05:25:59.317Z,78
2023-10-09T05:26:31.455Z,77
2023-10-09T05:27:03.387Z,77
2023-10-09T05:27:35.432Z,77
2023-10-09T05:28:13.725Z,77
2023-10-09T05:28:34.846Z,77
2023-10-09T05:28:55.264Z,77
2023-10-09T05:29:27.377Z,77
2023-10-09T05:29:59.299Z,77
2023-10-09T05:30:32.377Z,77
2023-10-09T05:31:03.316Z,77
2023-10-09T05:31:36.497Z,77
2023-10-09T05:32:07.345Z,77
2023-10-09T05:32:34.808Z,77
2023-10-09T05:32:55.371Z,76
2023-10-09T05:33:27.501Z,76
2023-10-09T05:33:59.394Z,76
2023-10-09T05:34:31.425Z,76
2023-10-09T05:35:03.684Z,76
2023-10-09T05:35:35.561Z,76
2023-10-09T05:36:07.767Z,76
2023-10-09T05:36:35.381Z,76
2023-10-09T05:36:55.903Z,76
2023-10-09T05:37:27.309Z,76
2023-10-09T05:38:01.077Z,76
2023-10-09T05:38:31.434Z,76
2023-10-09T05:39:03.355Z,76
2023-10-09T05:39:35.610Z,76
2023-10-09T05:40:07.684Z,76
2023-10-09T05:40:34.720Z,76
2023-10-09T05:40:55.639Z,76
2023-10-09T05:41:27.439Z,76
2023-10-09T05:41:59.294Z,76
2023-10-09T05:42:31.956Z,76
2023-10-09T05:43:03.508Z,76
2023-10-09T05:43:35.285Z,76
2023-10-09T05:44:07.450Z,76
2023-10-09T05:44:36.178Z,76
2023-10-09T05:44:55.408Z,77
2023-10-09T05:45:28.172Z,77
2023-10-09T05:45:59.961Z,76
2023-10-09T05:46:31.600Z,76
2023-10-09T05:47:03.482Z,76
2023-10-09T05:47:35.672Z,76
2023-10-09T05:48:08.090Z,76
2023-10-09T05:48:34.807Z,76
2023-10-09T05:48:55.955Z,77
2023-10-09T05:49:27.467Z,76
2023-10-09T05:49:59.443Z,76
2023-10-09T05:50:31.885Z,76
2023-10-09T05:51:04.571Z,76
2023-10-09T05:51:35.378Z,76
2023-10-09T05:52:07.448Z,76
2023-10-09T05:52:35.335Z,76
2023-10-09T05:52:55.422Z,76
2023-10-09T05:53:27.402Z,77
2023-10-09T05:53:59.366Z,77
2023-10-09T05:54:32.020Z,77
2023-10-09T05:55:03.871Z,77
2023-10-09T05:55:35.726Z,77
2023-10-09T05:56:07.422Z,76
2023-10-09T05:56:35.278Z,76
2023-10-09T05:56:55.398Z,76
2023-10-09T05:57:27.459Z,76
2023-10-09T05:57:59.436Z,76
2023-10-09T05:58:31.610Z,76
2023-10-09T05:59:03.404Z,76
2023-10-09T05:59:35.409Z,76
2023-10-09T06:00:10.693Z,76
2023-10-09T06:00:34.837Z,76
2023-10-09T06:00:56.709Z,76
2023-10-09T06:01:27.486Z,76
2023-10-09T06:01:59.461Z,76
2023-10-09T06:02:32.265Z,76
2023-10-09T06:03:03.431Z,76
2023-10-09T06:03:35.561Z,76
2023-10-09T06:04:07.570Z,76
2023-10-09T06:04:35.008Z,76
2023-10-09T06:04:56.324Z,76
2023-10-09T06:05:28.097Z,76
2023-10-09T06:05:59.466Z,76
2023-10-09T06:06:32.035Z,76
2023-10-09T06:07:03.438Z,76
2023-10-09T06:07:35.436Z,76
2023-10-09T06:08:07.432Z,76
2023-10-09T06:08:34.760Z,76
2023-10-09T06:08:56.588Z,76
2023-10-09T06:09:27.492Z,76
2023-10-09T06:09:59.458Z,76
2023-10-09T06:10:32.105Z,76
2023-10-09T06:11:03.584Z,76
2023-10-09T06:11:35.382Z,76
2023-10-09T06:12:08.623Z,76
2023-10-09T06:12:35.104Z,76
2023-10-09T06:12:58.406Z,76
2023-10-09T06:13:27.457Z,76
2023-10-09T06:13:59.410Z,76
2023-10-09T06:14:31.749Z,76
2023-10-09T06:15:04.226Z,76
2023-10-09T06:15:35.470Z,76
2023-10-09T06:16:07.661Z,76
2023-10-09T06:16:35.152Z,77
2023-10-09T06:16:55.428Z,77
2023-10-09T06:17:27.435Z,77
2023-10-09T06:17:59.380Z,76
2023-10-09T06:18:36.606Z,76
2023-10-09T06:19:03.448Z,76
2023-10-09T06:19:35.960Z,76
2023-10-09T06:20:07.818Z,76
2023-10-09T06:20:34.823Z,76
2023-10-09T06:20:55.711Z,76
2023-10-09T06:21:27.504Z,76
2023-10-09T06:21:59.377Z,76
2023-10-09T06:22:31.884Z,76
2023-10-09T06:23:03.674Z,76
2023-10-09T06:23:35.415Z,76
2023-10-09T06:24:08.528Z,76
2023-10-09T06:24:34.970Z,75
2023-10-09T06:24:56.694Z,75
2023-10-09T06:25:27.736Z,75
2023-10-09T06:25:59.399Z,75
2023-10-09T06:26:31.709Z,75
2023-10-09T06:27:03.386Z,76
2023-10-09T06:27:36.059Z,76
2023-10-09T06:28:08.348Z,76
2023-10-09T06:28:34.841Z,76
2023-10-09T06:28:55.397Z,75
2023-10-09T06:29:27.473Z,75
2023-10-09T06:29:59.408Z,75
2023-10-09T06:30:32.798Z,75
2023-10-09T06:31:03.431Z,75
2023-10-09T06:31:36.153Z,75
2023-10-09T06:32:07.483Z,75
2023-10-09T06:32:34.835Z,75
2023-10-09T06:32:55.769Z,75
2023-10-09T06:33:27.573Z,75
2023-10-09T06:33:59.393Z,75
2023-10-09T06:34:32.150Z,75
2023-10-09T06:35:03.815Z,75
2023-10-09T06:35:35.334Z,75
2023-10-09T06:36:17.965Z,76
2023-10-09T06:36:34.834Z,76
2023-10-09T06:36:55.561Z,76
2023-10-09T06:37:27.381Z,76
2023-10-09T06:37:59.781Z,76
2023-10-09T06:38:31.839Z,76
2023-10-09T06:39:03.450Z,76
2023-10-09T06:39:35.430Z,76
2023-10-09T06:40:07.851Z,76
2023-10-09T06:40:34.757Z,76
2023-10-09T06:41:03.969Z,76
2023-10-09T06:41:28.841Z,76
2023-10-09T06:41:59.389Z,76
2023-10-09T06:42:32.358Z,76
2023-10-09T06:43:03.558Z,76
2023-10-09T06:43:35.350Z,76
2023-10-09T06:44:07.808Z,75
2023-10-09T06:44:36.701Z,75
2023-10-09T06:44:55.596Z,75
2023-10-09T06:45:28.038Z,75
2023-10-09T06:45:59.801Z,76
2023-10-09T06:46:31.841Z,76
2023-10-09T06:47:03.402Z,76
2023-10-09T06:47:35.528Z,76
2023-10-09T06:48:08.052Z,76
2023-10-09T06:48:34.902Z,76
2023-10-09T06:48:55.885Z,76
2023-10-09T06:49:27.365Z,76
2023-10-09T06:49:59.522Z,76
2023-10-09T06:50:33.903Z,76
2023-10-09T06:51:04.450Z,76
2023-10-09T06:51:35.699Z,76
2023-10-09T06:52:07.801Z,76
2023-10-09T06:52:35.893Z,76
2023-10-09T06:52:55.400Z,77
2023-10-09T06:53:27.862Z,77
2023-10-09T06:53:59.421Z,77
2023-10-09T06:54:32.111Z,77
2023-10-09T06:55:03.927Z,77
2023-10-09T06:55:35.441Z,77
2023-10-09T06:56:09.787Z,77
2023-10-09T06:56:34.808Z,77
2023-10-09T06:56:55.380Z,77
2023-10-09T06:57:27.411Z,77
2023-10-09T06:57:59.378Z,77
2023-10-09T06:58:31.837Z,77
2023-10-09T06:59:03.411Z,77
2023-10-09T06:59:35.748Z,77
2023-10-09T07:00:10.771Z,77
2023-10-09T07:00:35.019Z,77
2023-10-09T07:00:56.115Z,76
2023-10-09T07:01:27.464Z,76
2023-10-09T07:01:59.454Z,76
2023-10-09T07:02:32.551Z,76
2023-10-09T07:03:03.555Z,76
2023-10-09T07:03:35.443Z,76
2023-10-09T07:04:07.649Z,76
2023-10-09T07:04:34.935Z,76
2023-10-09T07:04:55.342Z,76
2023-10-09T07:05:27.809Z,76
2023-10-09T07:05:59.327Z,76
2023-10-09T07:06:32.170Z,76
2023-10-09T07:07:03.350Z,77
2023-10-09T07:07:35.726Z,76
2023-10-09T07:08:07.395Z,76
2023-10-09T07:08:34.814Z,76